Time;durP1;ratioP1;P1;durP2;ratioP2;P2;SDS_P1;SDS_P2;PMS_P1;PMS_P2;Temp;Humidity;BMP_temperature;BMP_pressure;BME280_temperature;BME280_humidity;BME280_pressure;Samples;Min_cycle;Max_cycle;Signal;HPM_P1;HPM_P2
2021/10/19 00:00:08;;;;;;;11.68;6.63;;;;;;;;;;5012983;28;20100;-52
2021/10/19 00:02:35;;;;;;;8.93;5.13;;;;;;;;;;5013473;28;20058;-53
2021/10/19 00:05:01;;;;;;;10.50;5.90;;;;;;;;;;5013334;28;20026;-50
2021/10/19 00:07:27;;;;;;;12.85;5.88;;;;;;;;;;5012925;28;20033;-53
2021/10/19 00:09:53;;;;;;;13.27;6.20;;;;;;;;;;5013326;28;20091;-56
2021/10/19 00:12:19;;;;;;;12.55;6.47;;;;;;;;;;5013211;28;20088;-52
2021/10/19 00:14:45;;;;;;;11.85;6.13;;;;;;;;;;5011838;28;20113;-50
2021/10/19 00:17:11;;;;;;;11.45;6.75;;;;;;;;;;5011208;28;20075;-50
2021/10/19 00:19:37;;;;;;;12.38;6.65;;;;;;;;;;5004516;28;20038;-50
2021/10/19 00:22:04;;;;;;;11.50;6.43;;;;;;;;;;5013044;28;20062;-53
2021/10/19 00:24:30;;;;;;;12.13;6.82;;;;;;;;;;5013044;28;20018;-50
2021/10/19 00:26:56;;;;;;;12.45;6.82;;;;;;;;;;5005767;28;20505;-50
2021/10/19 00:29:22;;;;;;;14.95;7.78;;;;;;;;;;5012282;28;20030;-52
2021/10/19 00:31:50;;;;;;;14.88;7.57;;;;;;;;;;5012776;28;20057;-51
2021/10/19 00:34:16;;;;;;;13.20;6.95;;;;;;;;;;5012781;28;20394;-50
2021/10/19 00:36:41;;;;;;;14.80;7.13;;;;;;;;;;5012109;28;20049;-52
2021/10/19 00:39:08;;;;;;;16.67;7.30;;;;;;;;;;5011892;28;20110;-50
2021/10/19 00:41:34;;;;;;;13.63;7.05;;;;;;;;;;5012594;28;20406;-55
2021/10/19 00:44:00;;;;;;;12.10;7.15;;;;;;;;;;5012113;28;21726;-52
2021/10/19 00:46:26;;;;;;;12.50;6.55;;;;;;;;;;5012676;28;20058;-53
2021/10/19 00:48:53;;;;;;;11.38;7.07;;;;;;;;;;5012541;28;20401;-52
2021/10/19 00:51:19;;;;;;;13.32;7.13;;;;;;;;;;5012034;28;20028;-51
2021/10/19 00:53:45;;;;;;;10.52;6.55;;;;;;;;;;5012788;28;20058;-51
2021/10/19 00:56:12;;;;;;;13.98;6.70;;;;;;;;;;5012017;28;20045;-50
2021/10/19 00:58:39;;;;;;;14.68;6.65;;;;;;;;;;5011932;28;20040;-50
2021/10/19 01:01:05;;;;;;;11.55;6.43;;;;;;;;;;5013000;28;20370;-51
2021/10/19 01:03:31;;;;;;;13.30;6.82;;;;;;;;;;5012248;28;20022;-50
2021/10/19 01:05:59;;;;;;;17.05;7.35;;;;;;;;;;5009454;28;20022;-52
2021/10/19 01:08:25;;;;;;;13.50;6.78;;;;;;;;;;5010982;28;20033;-53
2021/10/19 01:10:51;;;;;;;11.88;6.45;;;;;;;;;;5011578;28;20041;-54
2021/10/19 01:13:17;;;;;;;14.93;7.55;;;;;;;;;;5011074;28;20022;-57
2021/10/19 01:15:45;;;;;;;12.18;6.68;;;;;;;;;;5012238;28;20481;-57
2021/10/19 01:18:15;;;;;;;15.98;7.57;;;;;;;;;;5012378;28;20057;-52
2021/10/19 01:20:42;;;;;;;15.38;7.30;;;;;;;;;;5012219;28;20033;-57
2021/10/19 01:23:08;;;;;;;13.15;6.95;;;;;;;;;;5010627;28;20098;-53
2021/10/19 01:25:34;;;;;;;12.68;7.32;;;;;;;;;;5011639;28;20022;-53
2021/10/19 01:28:05;;;;;;;16.17;7.90;;;;;;;;;;5012335;28;20038;-52
2021/10/19 01:30:31;;;;;;;17.27;8.63;;;;;;;;;;5012042;28;20040;-51
2021/10/19 01:32:57;;;;;;;15.88;7.70;;;;;;;;;;5012068;28;20245;-51
2021/10/19 01:35:31;;;;;;;13.20;7.15;;;;;;;;;;5011915;28;20034;-51
2021/10/19 01:37:57;;;;;;;13.32;6.53;;;;;;;;;;5004318;28;20037;-51
2021/10/19 01:40:22;;;;;;;13.35;7.90;;;;;;;;;;5011901;28;20034;-51
2021/10/19 01:42:48;;;;;;;13.40;7.18;;;;;;;;;;5006811;28;20418;-50
2021/10/19 01:45:15;;;;;;;14.60;7.60;;;;;;;;;;5011797;28;20101;-51
2021/10/19 01:47:41;;;;;;;13.68;7.93;;;;;;;;;;5011580;28;20033;-50
2021/10/19 01:50:08;;;;;;;16.48;7.80;;;;;;;;;;5012184;28;20065;-51
2021/10/19 01:52:34;;;;;;;12.93;7.22;;;;;;;;;;5009311;28;20108;-56
2021/10/19 01:55:00;;;;;;;15.25;8.13;;;;;;;;;;5015440;28;20120;-57
2021/10/19 01:57:26;;;;;;;13.18;7.07;;;;;;;;;;5011478;28;20036;-57
2021/10/19 01:59:52;;;;;;;16.20;8.05;;;;;;;;;;5015629;28;20478;-56
2021/10/19 02:02:18;;;;;;;13.90;7.78;;;;;;;;;;5015618;28;20030;-57
2021/10/19 02:04:44;;;;;;;16.10;8.18;;;;;;;;;;5014133;28;20029;-56
2021/10/19 02:07:10;;;;;;;15.82;7.50;;;;;;;;;;5015108;28;20021;-55
2021/10/19 02:09:36;;;;;;;12.95;6.75;;;;;;;;;;5015203;28;20076;-51
2021/10/19 02:12:02;;;;;;;14.93;8.25;;;;;;;;;;5015446;28;20040;-54
2021/10/19 02:14:28;;;;;;;13.15;7.70;;;;;;;;;;5013491;28;20096;-52
2021/10/19 02:16:54;;;;;;;17.60;8.85;;;;;;;;;;5015564;28;20061;-52
2021/10/19 02:19:25;;;;;;;15.32;8.68;;;;;;;;;;5012155;28;20030;-50
2021/10/19 02:21:51;;;;;;;15.52;8.23;;;;;;;;;;5014991;28;20028;-52
2021/10/19 02:24:16;;;;;;;14.23;8.15;;;;;;;;;;5014984;28;20570;-51
2021/10/19 02:26:42;;;;;;;15.65;7.47;;;;;;;;;;5013789;28;20072;-57
2021/10/19 02:29:08;;;;;;;14.20;7.43;;;;;;;;;;5010214;28;20030;-57
2021/10/19 02:31:34;;;;;;;16.85;8.48;;;;;;;;;;5014779;28;20128;-54
2021/10/19 02:34:00;;;;;;;13.88;7.82;;;;;;;;;;5015138;28;20370;-53
2021/10/19 02:36:26;;;;;;;16.73;7.97;;;;;;;;;;5014484;28;20042;-53
2021/10/19 02:38:52;;;;;;;17.80;8.02;;;;;;;;;;5014980;28;20037;-55
2021/10/19 02:41:19;;;;;;;15.57;8.30;;;;;;;;;;5015252;28;20018;-55
2021/10/19 02:43:45;;;;;;;17.48;8.88;;;;;;;;;;5015588;28;20149;-53
2021/10/19 02:46:11;;;;;;;17.73;8.57;;;;;;;;;;5014325;28;20042;-55
2021/10/19 02:48:37;;;;;;;15.68;8.93;;;;;;;;;;5014576;28;20494;-54
2021/10/19 02:51:03;;;;;;;15.93;7.78;;;;;;;;;;5014675;28;20037;-50
2021/10/19 02:53:29;;;;;;;14.63;8.13;;;;;;;;;;5014733;28;20022;-51
2021/10/19 02:55:55;;;;;;;16.50;8.15;;;;;;;;;;5014897;28;20090;-52
2021/10/19 02:58:21;;;;;;;14.75;7.93;;;;;;;;;;5014550;28;20042;-53
2021/10/19 03:00:47;;;;;;;16.67;8.60;;;;;;;;;;5014511;28;20037;-55
2021/10/19 03:03:13;;;;;;;16.15;8.68;;;;;;;;;;5014267;28;20501;-57
2021/10/19 03:05:40;;;;;;;14.07;7.85;;;;;;;;;;5012337;28;20033;-57
2021/10/19 03:08:06;;;;;;;17.33;8.63;;;;;;;;;;5009698;28;20430;-56
2021/10/19 03:10:32;;;;;;;14.63;8.13;;;;;;;;;;5014274;28;20108;-53
2021/10/19 03:12:58;;;;;;;19.67;9.18;;;;;;;;;;5014079;28;20124;-57
2021/10/19 03:15:24;;;;;;;18.45;8.57;;;;;;;;;;5014129;28;20038;-56
2021/10/19 03:17:50;;;;;;;16.95;7.93;;;;;;;;;;5014078;28;20348;-52
2021/10/19 03:20:17;;;;;;;17.95;8.93;;;;;;;;;;5013493;28;20530;-51
2021/10/19 03:22:43;;;;;;;19.17;8.70;;;;;;;;;;5012906;28;20109;-52
2021/10/19 03:25:09;;;;;;;21.33;9.40;;;;;;;;;;5013834;28;20018;-53
2021/10/19 03:27:35;;;;;;;15.82;8.20;;;;;;;;;;5007909;28;20104;-53
2021/10/19 03:30:01;;;;;;;16.17;7.95;;;;;;;;;;5013849;28;20518;-51
2021/10/19 03:32:27;;;;;;;17.70;8.80;;;;;;;;;;5013818;28;20046;-51
2021/10/19 03:34:53;;;;;;;13.00;7.50;;;;;;;;;;5013755;28;20037;-57
2021/10/19 03:37:19;;;;;;;14.38;7.85;;;;;;;;;;5013737;28;20382;-57
2021/10/19 03:39:45;;;;;;;17.30;8.60;;;;;;;;;;5011805;28;20030;-57
2021/10/19 03:42:11;;;;;;;15.93;8.63;;;;;;;;;;5013635;28;20056;-52
2021/10/19 03:44:37;;;;;;;17.10;8.63;;;;;;;;;;5013719;28;20030;-54
2021/10/19 03:47:03;;;;;;;16.33;8.68;;;;;;;;;;5013360;28;20429;-54
2021/10/19 03:49:29;;;;;;;15.98;8.23;;;;;;;;;;5012813;28;20818;-55
2021/10/19 03:51:55;;;;;;;17.10;9.07;;;;;;;;;;5011317;28;20118;-51
2021/10/19 03:54:21;;;;;;;17.60;9.10;;;;;;;;;;5013365;28;20033;-51
2021/10/19 03:56:47;;;;;;;17.40;8.98;;;;;;;;;;5009256;28;20491;-51
2021/10/19 03:59:13;;;;;;;18.40;9.07;;;;;;;;;;5013475;28;20022;-52
2021/10/19 04:01:39;;;;;;;18.60;8.73;;;;;;;;;;5012122;28;20057;-54
2021/10/19 04:04:05;;;;;;;17.70;9.27;;;;;;;;;;5012875;28;20718;-52
2021/10/19 04:06:31;;;;;;;16.92;9.13;;;;;;;;;;5012625;28;20057;-52
2021/10/19 04:08:57;;;;;;;19.52;9.35;;;;;;;;;;5013117;28;20030;-57
2021/10/19 04:11:23;;;;;;;19.50;9.82;;;;;;;;;;5012823;28;20037;-55
2021/10/19 04:13:49;;;;;;;20.20;10.60;;;;;;;;;;5010174;28;20072;-56
2021/10/19 04:16:14;;;;;;;24.40;10.63;;;;;;;;;;5012336;28;20378;-51
2021/10/19 04:18:40;;;;;;;18.67;9.68;;;;;;;;;;5012620;28;20040;-51
2021/10/19 04:21:06;;;;;;;17.05;8.98;;;;;;;;;;5012718;28;20053;-54
2021/10/19 04:23:32;;;;;;;17.70;9.75;;;;;;;;;;5012729;28;20060;-52
2021/10/19 04:25:58;;;;;;;21.30;9.82;;;;;;;;;;5012546;28;20450;-51
2021/10/19 04:28:24;;;;;;;17.90;8.73;;;;;;;;;;5012731;28;20045;-52
2021/10/19 04:30:51;;;;;;;17.85;9.15;;;;;;;;;;5012460;28;20034;-51
2021/10/19 04:33:17;;;;;;;23.35;10.00;;;;;;;;;;5009297;28;20057;-54
2021/10/19 04:35:44;;;;;;;18.52;9.18;;;;;;;;;;5012147;28;20036;-52
2021/10/19 04:38:10;;;;;;;19.20;10.48;;;;;;;;;;5012530;28;20033;-55
2021/10/19 04:40:36;;;;;;;19.52;10.10;;;;;;;;;;5012477;28;20030;-54
2021/10/19 04:43:02;;;;;;;19.17;9.93;;;;;;;;;;5008945;28;20037;-56
2021/10/19 04:45:28;;;;;;;20.40;9.88;;;;;;;;;;5012385;28;20021;-56
2021/10/19 04:47:56;;;;;;;22.60;10.27;;;;;;;;;;5012222;28;20168;-53
2021/10/19 04:50:22;;;;;;;17.98;9.40;;;;;;;;;;5010674;28;20049;-54
2021/10/19 04:52:47;;;;;;;20.45;9.80;;;;;;;;;;5011144;28;20030;-52
2021/10/19 04:55:14;;;;;;;22.77;10.13;;;;;;;;;;5011665;28;20022;-51
2021/10/19 04:57:40;;;;;;;18.20;9.85;;;;;;;;;;5011436;28;20041;-55
2021/10/19 05:00:06;;;;;;;19.58;11.20;;;;;;;;;;5012207;28;20030;-52
2021/10/19 05:02:32;;;;;;;20.02;10.68;;;;;;;;;;5010768;28;20446;-50
2021/10/19 05:04:58;;;;;;;20.10;10.80;;;;;;;;;;5008580;28;20057;-51
2021/10/19 05:07:24;;;;;;;19.67;10.68;;;;;;;;;;5009688;28;21635;-52
2021/10/19 05:09:50;;;;;;;21.98;11.07;;;;;;;;;;5012366;28;20033;-51
2021/10/19 05:12:16;;;;;;;19.92;10.68;;;;;;;;;;5012334;28;20112;-53
2021/10/19 05:14:42;;;;;;;23.88;11.02;;;;;;;;;;5012033;28;20026;-53
2021/10/19 05:17:10;;;;;;;20.70;9.85;;;;;;;;;;5011921;28;20465;-56
2021/10/19 05:19:35;;;;;;;22.02;10.60;;;;;;;;;;5011585;28;20022;-55
2021/10/19 05:22:01;;;;;;;21.85;11.15;;;;;;;;;;5012259;28;20076;-54
2021/10/19 05:24:27;;;;;;;20.98;11.13;;;;;;;;;;5012328;28;20033;-55
2021/10/19 05:26:53;;;;;;;22.67;11.35;;;;;;;;;;5008693;28;20115;-52
2021/10/19 05:29:19;;;;;;;23.15;11.38;;;;;;;;;;5015599;28;20070;-53
2021/10/19 05:31:45;;;;;;;22.85;11.70;;;;;;;;;;5015316;28;20347;-53
2021/10/19 05:34:11;;;;;;;19.77;10.88;;;;;;;;;;5016279;28;20037;-52
2021/10/19 05:36:37;;;;;;;19.58;10.35;;;;;;;;;;5013633;28;20037;-55
2021/10/19 05:39:04;;;;;;;24.67;12.27;;;;;;;;;;5010935;28;20034;-50
2021/10/19 05:41:30;;;;;;;20.75;10.63;;;;;;;;;;5013791;28;20112;-51
2021/10/19 05:43:56;;;;;;;19.95;10.07;;;;;;;;;;5012766;28;20026;-52
2021/10/19 05:46:22;;;;;;;19.35;10.35;;;;;;;;;;5015819;28;20030;-52
2021/10/19 05:48:48;;;;;;;19.70;10.23;;;;;;;;;;5015579;28;20022;-51
2021/10/19 05:51:14;;;;;;;21.63;10.52;;;;;;;;;;5014692;28;20026;-56
2021/10/19 05:53:40;;;;;;;19.92;10.43;;;;;;;;;;5014978;28;20036;-56
2021/10/19 05:56:06;;;;;;;19.52;10.15;;;;;;;;;;5014640;28;20022;-50
2021/10/19 05:58:32;;;;;;;27.48;11.30;;;;;;;;;;5011413;28;20027;-53
2021/10/19 06:00:58;;;;;;;17.65;9.52;;;;;;;;;;5010238;28;20025;-54
2021/10/19 06:03:24;;;;;;;21.38;10.18;;;;;;;;;;5014960;28;20056;-54
2021/10/19 06:05:50;;;;;;;18.58;11.02;;;;;;;;;;5013057;28;20029;-51
2021/10/19 06:08:16;;;;;;;24.10;12.25;;;;;;;;;;5013678;28;20062;-52
2021/10/19 06:10:42;;;;;;;27.65;11.95;;;;;;;;;;5014999;28;20456;-51
2021/10/19 06:13:08;;;;;;;23.80;11.38;;;;;;;;;;5013928;28;20072;-51
2021/10/19 06:15:34;;;;;;;19.88;10.68;;;;;;;;;;5015292;28;20022;-52
2021/10/19 06:18:00;;;;;;;19.23;10.65;;;;;;;;;;5015114;28;20033;-53
2021/10/19 06:20:26;;;;;;;26.95;10.85;;;;;;;;;;5014692;28;20030;-52
2021/10/19 06:22:53;;;;;;;20.83;10.35;;;;;;;;;;5008496;28;20030;-56
2021/10/19 06:25:19;;;;;;;23.38;11.75;;;;;;;;;;5010457;28;20443;-57
2021/10/19 06:27:45;;;;;;;18.27;9.63;;;;;;;;;;5012955;28;20033;-55
2021/10/19 06:30:11;;;;;;;22.55;11.02;;;;;;;;;;5013084;28;20034;-52
2021/10/19 06:32:39;;;;;;;19.80;10.23;;;;;;;;;;5013461;28;20041;-54
2021/10/19 06:35:05;;;;;;;18.88;10.25;;;;;;;;;;5012607;28;20112;-54
2021/10/19 06:37:31;;;;;;;20.83;10.55;;;;;;;;;;5013348;28;20470;-53
2021/10/19 06:39:57;;;;;;;25.95;10.95;;;;;;;;;;5014521;28;20064;-52
2021/10/19 06:42:23;;;;;;;19.48;10.02;;;;;;;;;;5012959;28;20041;-56
2021/10/19 06:44:49;;;;;;;22.67;10.82;;;;;;;;;;5013411;28;20455;-53
2021/10/19 06:47:15;;;;;;;20.95;10.52;;;;;;;;;;5013462;28;20462;-50
2021/10/19 06:49:43;;;;;;;22.65;11.45;;;;;;;;;;5010960;28;20034;-54
2021/10/19 06:52:09;;;;;;;22.67;11.55;;;;;;;;;;5011868;28;20025;-52
2021/10/19 06:54:35;;;;;;;22.35;10.88;;;;;;;;;;5013853;28;20033;-56
2021/10/19 06:57:01;;;;;;;20.08;10.32;;;;;;;;;;5013395;28;20041;-52
2021/10/19 06:59:27;;;;;;;19.45;9.55;;;;;;;;;;5012304;28;20093;-56
2021/10/19 07:01:53;;;;;;;24.30;11.52;;;;;;;;;;5011247;28;20054;-55
2021/10/19 07:04:19;;;;;;;21.20;11.13;;;;;;;;;;5011531;28;20038;-55
2021/10/19 07:06:45;;;;;;;25.40;11.30;;;;;;;;;;5012868;28;20038;-56
2021/10/19 07:09:11;;;;;;;21.92;10.45;;;;;;;;;;5008179;28;20026;-55
2021/10/19 07:11:37;;;;;;;21.17;10.57;;;;;;;;;;5012426;28;20034;-52
2021/10/19 07:14:03;;;;;;;28.08;12.27;;;;;;;;;;5011893;28;20034;-51
2021/10/19 07:16:29;;;;;;;25.17;11.15;;;;;;;;;;5009951;28;20061;-51
2021/10/19 07:18:55;;;;;;;27.65;11.10;;;;;;;;;;5012612;28;20470;-50
2021/10/19 07:21:23;;;;;;;23.40;11.00;;;;;;;;;;5009299;28;20117;-52
2021/10/19 07:23:49;;;;;;;25.52;11.13;;;;;;;;;;5004997;28;20054;-54
2021/10/19 07:26:15;;;;;;;21.13;10.48;;;;;;;;;;5009529;28;20343;-51
2021/10/19 07:28:41;;;;;;;18.35;10.35;;;;;;;;;;5008388;28;20057;-51
2021/10/19 07:31:07;;;;;;;20.52;10.15;;;;;;;;;;5013603;28;20022;-50
2021/10/19 07:33:32;;;;;;;23.48;10.85;;;;;;;;;;5013656;28;20026;-57
2021/10/19 07:35:58;;;;;;;18.42;9.93;;;;;;;;;;5013528;28;20037;-56
2021/10/19 07:38:24;;;;;;;20.88;10.02;;;;;;;;;;5013682;28;20453;-53
2021/10/19 07:40:50;;;;;;;22.48;10.98;;;;;;;;;;5013283;28;20029;-51
2021/10/19 07:43:16;;;;;;;22.45;9.77;;;;;;;;;;5013719;28;20404;-51
2021/10/19 07:45:42;;;;;;;22.52;10.68;;;;;;;;;;5013394;28;20030;-51
2021/10/19 07:48:08;;;;;;;20.50;10.70;;;;;;;;;;5013480;28;20026;-52
2021/10/19 07:50:34;;;;;;;20.60;10.80;;;;;;;;;;5012140;28;20044;-51
2021/10/19 07:53:01;;;;;;;20.45;10.18;;;;;;;;;;5013198;28;20138;-52
2021/10/19 07:55:29;;;;;;;22.50;10.43;;;;;;;;;;5013182;28;20895;-52
2021/10/19 07:57:55;;;;;;;23.13;11.65;;;;;;;;;;5014515;28;20037;-53
2021/10/19 08:00:25;;;;;;;18.77;9.75;;;;;;;;;;5016215;28;20036;-53
2021/10/19 08:02:52;;;;;;;23.30;10.40;;;;;;;;;;5013656;28;20030;-51
2021/10/19 08:05:18;;;;;;;21.63;10.35;;;;;;;;;;5013157;28;20462;-54
2021/10/19 08:07:48;;;;;;;22.17;10.38;;;;;;;;;;5009770;28;20041;-56
2021/10/19 08:10:16;;;;;;;19.58;9.70;;;;;;;;;;5013848;28;20470;-57
2021/10/19 08:12:42;;;;;;;19.98;10.13;;;;;;;;;;5013223;28;20497;-57
2021/10/19 08:15:08;;;;;;;19.75;10.80;;;;;;;;;;5012663;28;20486;-57
2021/10/19 08:17:34;;;;;;;20.70;10.52;;;;;;;;;;5012638;28;20113;-57
2021/10/19 08:20:00;;;;;;;19.40;9.90;;;;;;;;;;5012819;28;20029;-53
2021/10/19 08:22:30;;;;;;;19.98;10.10;;;;;;;;;;5012317;28;20091;-51
2021/10/19 08:24:57;;;;;;;20.80;10.48;;;;;;;;;;5012903;28;20132;-52
2021/10/19 08:27:24;;;;;;;19.88;9.40;;;;;;;;;;5012920;28;20029;-53
2021/10/19 08:29:50;;;;;;;19.30;9.50;;;;;;;;;;5011606;28;20034;-51
2021/10/19 08:32:16;;;;;;;19.27;10.00;;;;;;;;;;5012232;28;20406;-53
2021/10/19 08:34:43;;;;;;;18.85;9.05;;;;;;;;;;5012535;28;20158;-53
2021/10/19 08:37:09;;;;;;;21.65;10.23;;;;;;;;;;5012303;28;20038;-52
2021/10/19 08:39:36;;;;;;;18.77;9.50;;;;;;;;;;5012864;28;20060;-52
2021/10/19 08:42:02;;;;;;;21.35;9.60;;;;;;;;;;5012687;28;20030;-51
2021/10/19 08:44:28;;;;;;;18.05;9.13;;;;;;;;;;5012624;28;20030;-57
2021/10/19 08:46:55;;;;;;;19.80;9.43;;;;;;;;;;5011864;28;20489;-57
2021/10/19 08:49:21;;;;;;;19.55;9.65;;;;;;;;;;5012221;28;20516;-56
2021/10/19 08:51:47;;;;;;;19.17;9.10;;;;;;;;;;5012363;28;20034;-55
2021/10/19 08:54:13;;;;;;;17.67;9.23;;;;;;;;;;5007905;28;20153;-52
2021/10/19 08:56:40;;;;;;;18.20;8.75;;;;;;;;;;5011651;28;20542;-51
2021/10/19 08:59:07;;;;;;;20.67;10.10;;;;;;;;;;5012706;28;20053;-51
2021/10/19 09:01:37;;;;;;;17.90;9.18;;;;;;;;;;5012182;28;20455;-50
2021/10/19 09:04:10;;;;;;;13.68;8.02;;;;;;;;;;5012229;28;20052;-53
2021/10/19 09:06:36;;;;;;;;;;;;;;;;;;5009696;28;20113;-51
2021/10/19 09:09:04;;;;;;;21.63;9.45;;;;;;;;;;5009881;28;19995;-51
2021/10/19 09:11:36;;;;;;;13.00;7.10;;;;;;;;;;5011882;28;20026;-51
2021/10/19 09:14:03;;;;;;;17.38;8.50;;;;;;;;;;5011850;28;20030;-52
2021/10/19 09:16:35;;;;;;;13.80;7.82;;;;;;;;;;5011024;28;20145;-51
2021/10/19 09:19:02;;;;;;;16.42;7.82;;;;;;;;;;5007621;28;20032;-54
2021/10/19 09:21:31;;;;;;;16.75;7.90;;;;;;;;;;5010162;28;20026;-56
2021/10/19 09:24:15;;;;;;;12.88;7.10;;;;;;;;;;5005428;28;20033;-54
2021/10/19 09:26:50;;;;;;;13.85;7.10;;;;;;;;;;5010290;28;20022;-55
2021/10/19 09:29:16;;;;;;;12.50;6.53;;;;;;;;;;5009288;28;20026;-52
2021/10/19 09:31:42;;;;;;;13.50;7.00;;;;;;;;;;5010325;28;20516;-57
2021/10/19 09:34:12;;;;;;;15.90;7.78;;;;;;;;;;5006727;28;20065;-56
2021/10/19 09:36:38;;;;;;;13.43;7.13;;;;;;;;;;5011250;28;20043;-56
2021/10/19 09:39:04;;;;;;;13.50;6.78;;;;;;;;;;5008926;28;20105;-55
2021/10/19 09:41:40;;;;;;;17.00;7.70;;;;;;;;;;5008858;28;20426;-51
2021/10/19 09:44:10;;;;;;;12.73;6.63;;;;;;;;;;5007054;28;20401;-52
2021/10/19 09:46:37;;;;;;;14.38;7.05;;;;;;;;;;5009868;28;20116;-56
2021/10/19 09:49:03;;;;;;;15.85;7.30;;;;;;;;;;5011480;28;20057;-53
2021/10/19 09:51:29;;;;;;;15.77;7.75;;;;;;;;;;5012056;28;20049;-51
2021/10/19 09:53:56;;;;;;;14.23;7.35;;;;;;;;;;5011545;28;20370;-51
2021/10/19 09:56:22;;;;;;;14.02;7.55;;;;;;;;;;5011460;28;20088;-52
2021/10/19 09:58:48;;;;;;;14.02;7.28;;;;;;;;;;5011850;28;20529;-50
2021/10/19 10:01:14;;;;;;;17.65;7.28;;;;;;;;;;5014027;28;20112;-52
2021/10/19 10:03:41;;;;;;;14.05;7.68;;;;;;;;;;5011104;28;20021;-51
2021/10/19 10:06:08;;;;;;;13.63;7.05;;;;;;;;;;5011451;28;20026;-54
2021/10/19 10:08:35;;;;;;;14.88;8.07;;;;;;;;;;5011681;28;20034;-51
2021/10/19 10:11:00;;;;;;;16.33;6.90;;;;;;;;;;5008046;28;20105;-56
2021/10/19 10:13:26;;;;;;;18.20;8.07;;;;;;;;;;5010945;28;20037;-55
2021/10/19 10:15:53;;;;;;;13.55;6.78;;;;;;;;;;5014286;28;20050;-54
2021/10/19 10:18:31;;;;;;;15.60;6.97;;;;;;;;;;5001418;28;20025;-51
2021/10/19 10:20:57;;;;;;;13.57;6.80;;;;;;;;;;5012906;28;20116;-54
2021/10/19 10:23:24;;;;;;;13.52;7.03;;;;;;;;;;5014273;28;20104;-56
2021/10/19 10:25:51;;;;;;;15.20;7.15;;;;;;;;;;5012186;28;20033;-52
2021/10/19 10:28:27;;;;;;;13.00;6.93;;;;;;;;;;5014997;28;20101;-55
2021/10/19 10:30:54;;;;;;;14.35;6.55;;;;;;;;;;5012907;28;20038;-54
2021/10/19 10:33:31;;;;;;;13.57;7.05;;;;;;;;;;5015087;28;20068;-52
2021/10/19 10:36:00;;;;;;;14.85;7.15;;;;;;;;;;5014964;28;20064;-52
2021/10/19 10:38:26;;;;;;;10.80;6.22;;;;;;;;;;5014354;28;20040;-51
2021/10/19 10:40:56;;;;;;;11.10;5.75;;;;;;;;;;5014592;28;20415;-51
2021/10/19 10:43:23;;;;;;;10.75;5.95;;;;;;;;;;5011671;28;20091;-52
2021/10/19 10:46:11;;;;;;;13.00;6.35;;;;;;;;;;5012865;28;20421;-50
2021/10/19 10:48:37;;;;;;;11.93;6.20;;;;;;;;;;5013374;28;20053;-50
2021/10/19 10:51:04;;;;;;;8.93;5.15;;;;;;;;;;5008976;28;20287;-53
2021/10/19 10:53:35;;;;;;;19.52;6.50;;;;;;;;;;5010303;28;20109;-50
2021/10/19 10:56:01;;;;;;;9.82;4.95;;;;;;;;;;5013977;28;20087;-52
2021/10/19 10:58:34;;;;;;;7.97;4.78;;;;;;;;;;5014458;28;20041;-52
2021/10/19 11:01:01;;;;;;;9.13;4.40;;;;;;;;;;5013701;28;20021;-54
2021/10/19 11:03:27;;;;;;;7.32;3.97;;;;;;;;;;5008390;28;20026;-57
2021/10/19 11:05:55;;;;;;;6.57;3.67;;;;;;;;;;5006505;28;20029;-57
2021/10/19 11:08:27;;;;;;;9.63;4.55;;;;;;;;;;5014084;28;20033;-57
2021/10/19 11:11:02;;;;;;;7.55;3.97;;;;;;;;;;5010825;28;20034;-50
2021/10/19 11:13:29;;;;;;;8.55;3.65;;;;;;;;;;5008823;28;20025;-54
2021/10/19 11:15:56;;;;;;;5.75;3.28;;;;;;;;;;5014461;28;20025;-50
2021/10/19 11:18:25;;;;;;;8.27;4.28;;;;;;;;;;5014085;28;20033;-56
2021/10/19 11:20:52;;;;;;;6.65;3.90;;;;;;;;;;5013715;28;20167;-53
2021/10/19 11:23:18;;;;;;;5.80;3.35;;;;;;;;;;5014502;28;21375;-55
2021/10/19 11:25:44;;;;;;;6.50;3.40;;;;;;;;;;5012296;28;20112;-55
2021/10/19 11:28:10;;;;;;;5.97;3.67;;;;;;;;;;5013837;28;20109;-54
2021/10/19 11:30:36;;;;;;;5.78;3.55;;;;;;;;;;5014489;28;20021;-54
2021/10/19 11:33:02;;;;;;;6.55;3.50;;;;;;;;;;5009445;28;20393;-51
2021/10/19 11:35:28;;;;;;;4.90;2.97;;;;;;;;;;5012964;28;20034;-54
2021/10/19 11:37:54;;;;;;;5.68;2.70;;;;;;;;;;5013533;28;20096;-51
2021/10/19 11:40:20;;;;;;;5.32;3.08;;;;;;;;;;5013295;28;20022;-55
2021/10/19 11:42:51;;;;;;;6.38;3.22;;;;;;;;;;5010589;28;20033;-56
2021/10/19 11:45:18;;;;;;;5.60;3.10;;;;;;;;;;5007689;28;20030;-55
2021/10/19 11:47:49;;;;;;;6.30;3.38;;;;;;;;;;5013509;28;20033;-56
2021/10/19 11:50:16;;;;;;;4.20;2.47;;;;;;;;;;5013020;28;20029;-57
2021/10/19 11:52:42;;;;;;;5.57;3.05;;;;;;;;;;5013774;28;20092;-54
2021/10/19 11:55:09;;;;;;;4.40;2.70;;;;;;;;;;5011694;28;20034;-55
2021/10/19 11:57:38;;;;;;;5.47;2.67;;;;;;;;;;5011384;28;20493;-56
2021/10/19 12:00:06;;;;;;;6.15;2.83;;;;;;;;;;5001722;28;20108;-53
2021/10/19 12:02:32;;;;;;;4.78;2.70;;;;;;;;;;5013103;28;20022;-52
2021/10/19 12:05:04;;;;;;;4.70;2.65;;;;;;;;;;5005954;28;20034;-54
2021/10/19 12:07:31;;;;;;;5.65;3.25;;;;;;;;;;5005531;28;20033;-54
2021/10/19 12:10:07;;;;;;;5.53;2.83;;;;;;;;;;5010917;28;20092;-52
2021/10/19 12:12:33;;;;;;;6.43;3.22;;;;;;;;;;5008716;28;20050;-57
2021/10/19 12:14:59;;;;;;;6.15;3.25;;;;;;;;;;5012731;28;20072;-55
2021/10/19 12:17:25;;;;;;;7.25;3.22;;;;;;;;;;5012616;28;20038;-51
2021/10/19 12:19:55;;;;;;;6.15;4.10;;;;;;;;;;5011745;28;20101;-53
2021/10/19 12:22:21;;;;;;;5.70;3.50;;;;;;;;;;5013304;28;20018;-51
2021/10/19 12:24:47;;;;;;;6.63;3.28;;;;;;;;;;5011305;28;20025;-56
2021/10/19 12:27:17;;;;;;;6.05;3.00;;;;;;;;;;5012606;28;20034;-55
2021/10/19 12:29:45;;;;;;;6.93;3.70;;;;;;;;;;5011213;28;20088;-57
2021/10/19 12:32:11;;;;;;;6.32;3.45;;;;;;;;;;5007503;28;20050;-51
2021/10/19 12:34:37;;;;;;;7.22;3.33;;;;;;;;;;5006449;28;20117;-56
2021/10/19 12:37:05;;;;;;;6.88;3.78;;;;;;;;;;5010491;28;20038;-54
2021/10/19 12:39:32;;;;;;;5.80;3.33;;;;;;;;;;5012260;28;20045;-57
2021/10/19 12:41:58;;;;;;;4.93;2.88;;;;;;;;;;5010610;28;20117;-54
2021/10/19 12:44:25;;;;;;;7.13;3.38;;;;;;;;;;5006690;28;20024;-54
2021/10/19 12:46:52;;;;;;;5.00;3.55;;;;;;;;;;5009835;28;20026;-51
2021/10/19 12:49:18;;;;;;;5.50;3.25;;;;;;;;;;5006809;28;20385;-51
2021/10/19 12:51:45;;;;;;;5.70;3.40;;;;;;;;;;5010712;28;20040;-53
2021/10/19 12:54:11;;;;;;;5.15;3.25;;;;;;;;;;5011585;28;20129;-51
2021/10/19 12:56:38;;;;;;;5.20;3.00;;;;;;;;;;5012147;28;20456;-52
2021/10/19 12:59:05;;;;;;;4.78;3.00;;;;;;;;;;5002630;28;20109;-52
2021/10/19 13:01:31;;;;;;;4.57;2.85;;;;;;;;;;5011315;28;20060;-57
2021/10/19 13:03:57;;;;;;;4.93;2.97;;;;;;;;;;5004639;28;20105;-54
2021/10/19 13:06:24;;;;;;;4.90;2.70;;;;;;;;;;5009210;28;20057;-55
2021/10/19 13:08:51;;;;;;;8.93;3.55;;;;;;;;;;5010105;28;20045;-57
2021/10/19 13:11:17;;;;;;;4.13;3.20;;;;;;;;;;5010204;28;20109;-54
2021/10/19 13:13:43;;;;;;;6.30;3.58;;;;;;;;;;5010938;28;20109;-54
2021/10/19 13:16:10;;;;;;;6.38;3.28;;;;;;;;;;5011633;28;20449;-52
2021/10/19 13:18:39;;;;;;;6.85;3.40;;;;;;;;;;5010531;28;20038;-55
2021/10/19 13:21:05;;;;;;;5.10;2.90;;;;;;;;;;5011842;28;20088;-52
2021/10/19 13:23:31;;;;;;;5.68;2.92;;;;;;;;;;5011587;28;20026;-54
2021/10/19 13:25:57;;;;;;;5.00;2.83;;;;;;;;;;5010736;28;20036;-51
2021/10/19 13:28:23;;;;;;;6.55;3.17;;;;;;;;;;5008732;28;20038;-51
2021/10/19 13:30:50;;;;;;;4.05;2.35;;;;;;;;;;5010695;28;20116;-51
2021/10/19 13:33:16;;;;;;;5.90;2.70;;;;;;;;;;5011516;28;20050;-51
2021/10/19 13:35:43;;;;;;;4.32;2.30;;;;;;;;;;5010208;28;20030;-57
2021/10/19 13:38:09;;;;;;;6.70;2.58;;;;;;;;;;5008126;28;20109;-56
2021/10/19 13:40:35;;;;;;;3.90;1.98;;;;;;;;;;5010129;28;20030;-56
2021/10/19 13:43:02;;;;;;;4.18;2.60;;;;;;;;;;5007634;28;20117;-56
2021/10/19 13:45:28;;;;;;;4.18;2.33;;;;;;;;;;5005083;28;20033;-55
2021/10/19 13:47:54;;;;;;;4.15;1.95;;;;;;;;;;5002988;28;20042;-54
2021/10/19 13:50:21;;;;;;;3.22;2.13;;;;;;;;;;5011966;28;20557;-55
2021/10/19 13:52:46;;;;;;;7.18;2.78;;;;;;;;;;5013518;28;20108;-53
2021/10/19 13:55:15;;;;;;;4.35;1.85;;;;;;;;;;5009306;28;20033;-51
2021/10/19 13:57:41;;;;;;;3.15;2.05;;;;;;;;;;5015342;28;20034;-51
2021/10/19 14:00:08;;;;;;;3.67;2.00;;;;;;;;;;5012104;28;20036;-55
2021/10/19 14:02:35;;;;;;;3.22;1.98;;;;;;;;;;5012134;28;20502;-52
2021/10/19 14:05:02;;;;;;;3.38;2.25;;;;;;;;;;5012676;28;20148;-51
2021/10/19 14:07:27;;;;;;;6.65;2.17;;;;;;;;;;5014554;28;20152;-51
2021/10/19 14:09:53;;;;;;;4.63;1.92;;;;;;;;;;5014984;28;20116;-55
2021/10/19 14:12:19;;;;;;;2.65;1.75;;;;;;;;;;5015462;28;20075;-53
2021/10/19 14:14:46;;;;;;;3.63;1.98;;;;;;;;;;5011789;28;20033;-57
2021/10/19 14:17:12;;;;;;;2.67;2.00;;;;;;;;;;5012543;28;20033;-55
2021/10/19 14:19:38;;;;;;;4.82;2.67;;;;;;;;;;5010887;28;20022;-56
2021/10/19 14:22:07;;;;;;;3.67;1.95;;;;;;;;;;5010659;28;20600;-56
2021/10/19 14:24:33;;;;;;;3.97;2.20;;;;;;;;;;5014781;28;20021;-56
2021/10/19 14:26:59;;;;;;;4.45;2.20;;;;;;;;;;5006522;28;20076;-55